Time;durP1;ratioP1;P1;durP2;ratioP2;P2;SDS_P1;SDS_P2;PMS_P1;PMS_P2;Temp;Humidity;BMP_temperature;BMP_pressure;BME280_temperature;BME280_humidity;BME280_pressure;Samples;Min_cycle;Max_cycle;Signal;HPM_P1;HPM_P2
2023/12/15 00:01:53;;;;;;;32.95;15.63;;;;;;;3.38;100.00;101161.63;4993596;28;20030;-74
2023/12/15 00:04:18;;;;;;;28.42;14.05;;;;;;;3.38;100.00;101155.97;5009352;28;20474;-73
2023/12/15 00:06:45;;;;;;;33.33;15.50;;;;;;;3.37;100.00;101166.47;5011508;28;20030;-75
2023/12/15 00:09:11;;;;;;;34.92;16.27;;;;;;;3.38;100.00;101164.47;5013782;28;20040;-73
2023/12/15 00:11:37;;;;;;;34.20;17.10;;;;;;;3.38;100.00;101164.47;5007529;28;20438;-73
2023/12/15 00:14:03;;;;;;;33.30;16.20;;;;;;;3.37;100.00;101171.31;5014100;28;20033;-75
2023/12/15 00:16:29;;;;;;;37.85;16.95;;;;;;;3.35;100.00;101177.38;5014443;28;20029;-75
2023/12/15 00:18:56;;;;;;;31.05;17.20;;;;;;;3.34;100.00;101181.44;5014241;28;20100;-76
2023/12/15 00:21:23;;;;;;;31.80;15.73;;;;;;;3.31;100.00;101182.28;5014221;28;20037;-77
2023/12/15 00:23:51;;;;;;;33.15;15.98;;;;;;;3.31;100.00;101187.94;5012775;28;20034;-74
2023/12/15 00:26:17;;;;;;;29.50;15.85;;;;;;;3.28;100.00;101191.56;5012635;28;20430;-75
2023/12/15 00:28:43;;;;;;;34.60;16.65;;;;;;;3.27;100.00;101197.66;4996636;28;20033;-75
2023/12/15 00:31:17;;;;;;;31.58;18.33;;;;;;;3.28;100.00;101190.81;5013756;28;20045;-74
2023/12/15 00:33:44;;;;;;;30.77;17.40;;;;;;;3.31;100.00;101201.25;5013730;28;20108;-74
2023/12/15 00:36:09;;;;;;;32.67;14.98;;;;;;;3.22;100.00;101196.91;5013496;28;20187;-75
2023/12/15 00:38:41;;;;;;;34.90;17.25;;;;;;;3.30;100.00;101210.94;5013557;28;20463;-75
2023/12/15 00:41:06;;;;;;;;;;;;;;;3.23;100.00;101208.97;5014561;28;20037;-75
2023/12/15 00:43:33;;;;;;;30.10;16.30;;;;;;;3.27;100.00;101215.41;5013743;28;19909;-75
2023/12/15 00:45:59;;;;;;;30.45;13.93;;;;;;;3.25;100.00;101215.03;5014119;28;20538;-73
2023/12/15 00:48:27;;;;;;;31.30;16.80;;;;;;;3.32;100.00;101229.06;5013353;28;20041;-73
2023/12/15 00:50:56;;;;;;;33.58;17.25;;;;;;;3.32;100.00;101225.44;5013360;28;20029;-74
2023/12/15 00:53:24;;;;;;;32.47;16.73;;;;;;;3.31;100.00;101235.94;5013260;28;20088;-74
2023/12/15 00:55:51;;;;;;;30.42;15.95;;;;;;;3.27;100.00;101234.38;5013409;28;20065;-74
2023/12/15 00:58:18;;;;;;;29.02;15.40;;;;;;;3.30;100.00;101242.00;5013500;28;20456;-74
2023/12/15 01:00:45;;;;;;;32.30;15.90;;;;;;;3.31;100.00;101240.78;5013517;28;20455;-73
2023/12/15 01:03:10;;;;;;;31.70;16.33;;;;;;;3.32;100.00;101239.56;5013212;28;20030;-73
2023/12/15 01:05:37;;;;;;;31.02;15.18;;;;;;;3.36;100.00;101251.63;5013077;28;20030;-73
2023/12/15 01:08:02;;;;;;;28.40;15.32;;;;;;;3.35;100.00;101256.47;5013216;28;20378;-74
2023/12/15 01:10:29;;;;;;;33.15;15.38;;;;;;;3.26;100.00;101246.88;5013198;28;20092;-76
2023/12/15 01:12:56;;;;;;;33.67;16.85;;;;;;;3.34;100.00;101257.69;5013070;28;20063;-74
2023/12/15 01:15:23;;;;;;;24.30;14.85;;;;;;;3.31;100.00;101281.13;5013010;28;20113;-74
2023/12/15 01:17:49;;;;;;;28.42;15.18;;;;;;;3.31;100.00;101277.50;4995252;28;20053;-74
2023/12/15 01:20:17;;;;;;;29.52;15.85;;;;;;;3.28;100.00;101278.34;5017025;28;20034;-75
2023/12/15 01:22:44;;;;;;;34.75;18.80;;;;;;;3.31;100.00;101280.31;5016072;28;20030;-73
2023/12/15 01:25:10;;;;;;;33.33;16.55;;;;;;;3.27;100.00;101280.38;5016979;28;20048;-72
2023/12/15 01:27:37;;;;;;;34.03;16.60;;;;;;;3.26;100.00;101287.22;5016716;28;20471;-74
2023/12/15 01:30:04;;;;;;;32.58;17.77;;;;;;;3.23;100.00;101293.69;5015503;28;20096;-72
2023/12/15 01:32:32;;;;;;;39.88;18.88;;;;;;;3.23;100.00;101293.69;5016979;28;20037;-73
2023/12/15 01:34:59;;;;;;;32.45;18.30;;;;;;;3.19;100.00;101299.38;5016404;28;20042;-71
2023/12/15 01:37:26;;;;;;;35.13;18.60;;;;;;;3.21;100.00;101302.63;5017079;28;20084;-72
2023/12/15 01:39:53;;;;;;;34.90;18.83;;;;;;;3.21;100.00;101307.47;5016934;28;20138;-74
2023/12/15 01:42:18;;;;;;;35.65;17.73;;;;;;;3.21;100.00;101301.81;5016980;28;20022;-73
2023/12/15 01:44:45;;;;;;;33.10;17.50;;;;;;;3.17;100.00;101313.16;5016679;28;20026;-75
2023/12/15 01:47:18;;;;;;;30.13;17.52;;;;;;;3.18;100.00;101313.94;5031511;28;20033;-73
2023/12/15 01:49:58;;;;;;;33.00;17.83;;;;;;;3.19;100.00;101316.34;4992424;28;20078;-73
2023/12/15 01:52:26;;;;;;;33.45;18.83;;;;;;;3.21;100.00;101321.56;4996984;28;20057;-73
2023/12/15 01:54:51;;;;;;;34.65;17.50;;;;;;;3.18;100.00;101323.19;4996863;28;20064;-74
2023/12/15 01:57:18;;;;;;;32.60;17.55;;;;;;;3.19;100.00;101319.16;4996945;28;20054;-74
2023/12/15 01:59:48;;;;;;;31.25;16.70;;;;;;;3.19;100.00;101324.00;4996016;28;20026;-74
2023/12/15 02:02:14;;;;;;;36.05;18.92;;;;;;;3.18;100.00;101325.25;4997068;28;20041;-73
2023/12/15 02:04:40;;;;;;;33.95;17.23;;;;;;;3.16;100.00;101327.66;4995672;28;20089;-75
2023/12/15 02:07:07;;;;;;;31.98;17.00;;;;;;;3.13;100.00;101337.75;4996116;28;20038;-74
2023/12/15 02:09:34;;;;;;;35.95;17.20;;;;;;;3.11;100.00;101330.94;4995896;28;20038;-74
2023/12/15 02:12:00;;;;;;;34.95;17.42;;;;;;;3.10;100.00;101330.13;4995700;28;20047;-74
2023/12/15 02:14:25;;;;;;;35.55;18.30;;;;;;;3.09;100.00;101331.34;4995077;28;20442;-73
2023/12/15 02:16:52;;;;;;;38.75;19.83;;;;;;;3.03;100.00;101324.53;4996499;28;20061;-74
2023/12/15 02:19:18;;;;;;;38.95;18.75;;;;;;;3.09;100.00;101339.00;4996759;28;20464;-75
2023/12/15 02:21:44;;;;;;;35.90;18.40;;;;;;;3.07;100.00;101342.28;4994922;28;20033;-71
2023/12/15 02:24:12;;;;;;;41.25;19.73;;;;;;;3.07;100.00;101333.81;4995234;28;20054;-74
2023/12/15 02:26:39;;;;;;;37.85;18.55;;;;;;;3.04;100.00;101342.28;5011329;28;20038;-74
2023/12/15 02:29:04;;;;;;;38.83;18.92;;;;;;;2.96;100.00;101330.25;4994979;28;20430;-74
2023/12/15 02:31:31;;;;;;;36.35;18.30;;;;;;;3.00;100.00;101336.69;4995462;28;20030;-73
2023/12/15 02:33:56;;;;;;;39.85;20.25;;;;;;;3.00;100.00;101338.69;4996057;28;20399;-72
2023/12/15 02:36:24;;;;;;;36.70;19.85;;;;;;;2.96;100.00;101335.91;4996445;28;20034;-73
2023/12/15 02:38:51;;;;;;;35.35;18.95;;;;;;;2.95;100.00;101339.94;4996840;28;20034;-74
2023/12/15 02:41:17;;;;;;;35.95;19.15;;;;;;;2.93;100.00;101339.56;4996163;28;20093;-75
2023/12/15 02:43:44;;;;;;;33.15;17.20;;;;;;;2.94;100.00;101341.16;4995400;28;20072;-72
2023/12/15 02:46:12;;;;;;;40.00;19.65;;;;;;;2.94;100.00;101338.31;4997351;28;20468;-74
2023/12/15 02:48:38;;;;;;;33.67;17.92;;;;;;;2.95;100.00;101350.44;4997022;28;20057;-73
2023/12/15 02:51:06;;;;;;;39.63;20.13;;;;;;;2.92;100.00;101354.09;4995713;28;20030;-74
2023/12/15 02:53:31;;;;;;;40.97;20.23;;;;;;;2.91;100.00;101360.94;4995837;28;20041;-74
2023/12/15 02:55:58;;;;;;;34.10;18.15;;;;;;;2.91;100.00;101361.75;4995644;28;20042;-74
2023/12/15 02:58:24;;;;;;;39.67;19.42;;;;;;;2.88;100.00;101362.59;4995658;28;20022;-74
2023/12/15 03:00:50;;;;;;;41.90;19.48;;;;;;;2.86;100.00;101370.66;4995683;28;20030;-75
2023/12/15 03:03:18;;;;;;;40.22;19.75;;;;;;;2.78;100.00;101375.53;4994303;28;20030;-74
2023/12/15 03:05:44;;;;;;;38.40;19.23;;;;;;;2.72;100.00;101371.56;4995556;28;20045;-74
2023/12/15 03:08:09;;;;;;;37.22;18.98;;;;;;;2.72;100.00;101387.69;4995385;28;20026;-73
2023/12/15 03:10:38;;;;;;;39.58;18.52;;;;;;;2.65;100.00;101380.06;4994910;28;20050;-73
2023/12/15 03:13:04;;;;;;;38.53;20.63;;;;;;;2.60;100.00;101380.50;4995451;28;20022;-74
2023/12/15 03:15:31;;;;;;;39.42;19.88;;;;;;;2.54;100.00;101389.81;5010285;28;20030;-73
2023/12/15 03:17:57;;;;;;;39.38;18.25;;;;;;;2.44;100.00;101382.22;4994908;28;20426;-73
2023/12/15 03:20:23;;;;;;;39.40;18.83;;;;;;;2.47;100.00;101387.03;4995155;28;20045;-74
2023/12/15 03:22:49;;;;;;;38.60;19.52;;;;;;;2.50;100.00;101406.75;5010199;28;20143;-74
2023/12/15 03:25:16;;;;;;;42.92;19.45;;;;;;;2.48;100.00;101406.38;4993767;28;20472;-73
2023/12/15 03:27:42;;;;;;;39.17;19.55;;;;;;;2.45;100.00;101401.53;4994812;28;20474;-75
2023/12/15 03:30:17;;;;;;;43.42;18.55;;;;;;;2.43;100.00;101406.78;4994569;28;20038;-73
2023/12/15 03:32:43;;;;;;;34.75;17.85;;;;;;;2.35;100.00;101402.38;4995169;28;20133;-74
2023/12/15 03:35:10;;;;;;;35.63;18.38;;;;;;;2.44;100.00;101416.06;5009942;28;20026;-74
2023/12/15 03:37:36;;;;;;;41.42;19.60;;;;;;;2.42;100.00;101412.81;4993628;28;20018;-75
2023/12/15 03:40:03;;;;;;;35.92;19.00;;;;;;;2.46;100.00;101407.97;4994702;28;20045;-73
2023/12/15 03:42:29;;;;;;;37.83;19.92;;;;;;;2.46;100.00;101419.25;5009950;28;20321;-73
2023/12/15 03:44:55;;;;;;;37.05;17.05;;;;;;;2.42;100.00;101416.47;4994726;28;20029;-74
2023/12/15 03:47:21;;;;;;;38.28;18.55;;;;;;;2.45;100.00;101428.91;4994613;28;20173;-74
2023/12/15 03:49:49;;;;;;;43.83;20.38;;;;;;;2.46;100.00;101428.53;4994609;28;20032;-74
2023/12/15 03:52:15;;;;;;;38.95;18.30;;;;;;;2.39;100.00;101422.91;4994590;28;20038;-73
2023/12/15 03:54:40;;;;;;;36.05;17.20;;;;;;;2.46;100.00;101430.53;5009581;28;20029;-73
2023/12/15 03:57:06;;;;;;;40.47;18.52;;;;;;;2.46;100.00;101434.16;4994488;28;20460;-73
2023/12/15 03:59:32;;;;;;;39.30;18.98;;;;;;;2.46;100.00;101436.19;4994577;28;20117;-74
2023/12/15 04:01:59;;;;;;;37.20;18.95;;;;;;;2.47;100.00;101440.59;4994727;28;20026;-73
2023/12/15 04:04:25;;;;;;;35.58;17.95;;;;;;;2.49;100.00;101444.63;4994486;28;20026;-75
2023/12/15 04:06:53;;;;;;;32.53;16.45;;;;;;;2.50;100.00;101445.41;4994194;28;20040;-75
2023/12/15 04:09:20;;;;;;;37.83;19.52;;;;;;;2.52;100.00;101449.47;4994419;28;20080;-73
2023/12/15 04:11:46;;;;;;;37.03;19.17;;;;;;;2.54;100.00;101452.66;4993390;28;20025;-75
2023/12/15 04:14:12;;;;;;;37.08;18.63;;;;;;;2.55;100.00;101461.94;5009319;28;20030;-74
2023/12/15 04:16:40;;;;;;;36.80;18.63;;;;;;;2.56;100.00;101458.69;4993078;28;20030;-74
2023/12/15 04:19:27;;;;;;;37.58;18.42;;;;;;;2.57;100.00;101459.50;4994197;28;20049;-74
2023/12/15 04:21:55;;;;;;;35.75;18.35;;;;;;;2.57;100.00;101473.63;4993985;28;20467;-75
2023/12/15 04:24:28;;;;;;;35.80;18.55;;;;;;;2.61;100.00;101477.22;4994127;28;20361;-74
2023/12/15 04:26:56;;;;;;;34.25;17.35;;;;;;;2.60;100.00;101486.88;4994206;28;20072;-76
2023/12/15 04:29:22;;;;;;;36.08;16.75;;;;;;;2.60;100.00;101482.06;4994030;28;20114;-74
2023/12/15 04:31:55;;;;;;;36.10;18.23;;;;;;;2.63;100.00;101492.53;4992873;28;20026;-74
2023/12/15 04:34:20;;;;;;;32.97;16.52;;;;;;;2.61;100.00;101494.16;4994041;28;20045;-73
2023/12/15 04:36:46;;;;;;;36.60;18.85;;;;;;;2.58;100.00;101481.69;5009242;28;20456;-73
2023/12/15 04:39:12;;;;;;;39.00;18.50;;;;;;;2.67;100.00;101500.97;4993708;28;20121;-74
2023/12/15 04:41:38;;;;;;;37.10;19.77;;;;;;;2.69;100.00;101509.81;4994171;28;20337;-74
2023/12/15 04:44:04;;;;;;;39.25;20.17;;;;;;;2.71;100.00;101504.59;4993762;28;20030;-73
2023/12/15 04:46:31;;;;;;;39.60;19.27;;;;;;;2.73;100.00;101519.09;4993673;28;20030;-75
2023/12/15 04:48:59;;;;;;;35.28;18.60;;;;;;;2.73;100.00;101530.41;4993790;28;20041;-75
2023/12/15 04:51:26;;;;;;;37.63;19.33;;;;;;;2.74;100.00;101526.34;4992634;28;20037;-74
2023/12/15 04:53:51;;;;;;;37.13;18.50;;;;;;;2.76;100.00;101527.56;4996437;28;20093;-73
2023/12/15 04:56:17;;;;;;;38.10;18.92;;;;;;;2.79;100.00;101538.00;4999167;28;20042;-73
2023/12/15 04:58:43;;;;;;;33.90;18.02;;;;;;;2.82;100.00;101544.88;5000233;28;20046;-74
2023/12/15 05:01:13;;;;;;;37.80;18.67;;;;;;;2.82;100.00;101539.22;4982659;28;20029;-75
2023/12/15 05:03:42;;;;;;;40.63;20.08;;;;;;;2.78;100.00;101549.72;5000199;28;20038;-73
2023/12/15 05:06:18;;;;;;;40.05;18.58;;;;;;;2.77;100.00;101556.56;5000230;28;20026;-73
2023/12/15 05:08:45;;;;;;;39.42;19.55;;;;;;;2.79;100.00;101559.78;5000082;28;20034;-74
2023/12/15 05:11:12;;;;;;;39.17;18.40;;;;;;;2.84;100.00;101553.72;5000052;28;20110;-74
2023/12/15 05:13:37;;;;;;;36.28;19.48;;;;;;;2.90;100.00;101554.91;4999944;28;20030;-74
2023/12/15 05:16:03;;;;;;;33.22;17.98;;;;;;;2.91;100.00;101550.88;5000109;28;20029;-74
2023/12/15 05:18:29;;;;;;;32.60;18.75;;;;;;;2.92;100.00;101546.84;4998692;28;20530;-75
2023/12/15 05:20:54;;;;;;;35.22;17.15;;;;;;;2.93;100.00;101550.47;4999905;28;20057;-74
2023/12/15 05:23:19;;;;;;;36.30;19.10;;;;;;;2.98;100.00;101564.94;4999529;28;20038;-74
2023/12/15 05:25:46;;;;;;;39.58;19.17;;;;;;;3.00;100.00;101565.34;5013802;28;20501;-72
2023/12/15 05:28:12;;;;;;;37.13;18.65;;;;;;;3.01;100.00;101563.34;5019414;28;20029;-74
2023/12/15 05:30:38;;;;;;;32.30;17.83;;;;;;;3.02;100.00;101562.13;5020080;28;20017;-75
2023/12/15 05:33:05;;;;;;;32.72;17.75;;;;;;;2.98;100.00;101567.00;5020570;28;20085;-74
2023/12/15 05:35:30;;;;;;;34.72;18.88;;;;;;;3.00;100.00;101565.34;5020349;28;20108;-75
2023/12/15 05:37:56;;;;;;;36.50;19.27;;;;;;;3.01;100.00;101568.97;5035302;28;20459;-75
2023/12/15 05:40:21;;;;;;;37.65;19.38;;;;;;;2.98;100.00;101575.47;5018627;28;20022;-74
2023/12/15 05:42:47;;;;;;;34.35;17.25;;;;;;;2.97;100.00;101569.00;5019927;28;20426;-76
2023/12/15 05:45:14;;;;;;;34.13;16.23;;;;;;;2.97;100.00;101571.00;5002600;28;20038;-76
2023/12/15 05:47:40;;;;;;;34.65;18.45;;;;;;;2.97;100.00;101579.50;5019917;28;20093;-78
2023/12/15 05:50:06;;;;;;;32.38;17.20;;;;;;;2.97;100.00;101580.28;5021154;28;20110;-76
2023/12/15 05:52:34;;;;;;;37.78;17.73;;;;;;;2.98;100.00;101581.09;5020359;28;20025;-77
2023/12/15 05:54:59;;;;;;;36.58;17.52;;;;;;;2.97;100.00;101594.41;5019486;28;20356;-75
2023/12/15 05:57:26;;;;;;;39.58;18.25;;;;;;;2.96;100.00;101598.44;5001985;28;20497;-77
2023/12/15 05:59:52;;;;;;;34.83;17.58;;;;;;;2.93;100.00;101604.09;5018224;28;20025;-77
2023/12/15 06:02:19;;;;;;;35.45;18.70;;;;;;;2.93;100.00;101610.56;5019836;28;20021;-77
2023/12/15 06:04:46;;;;;;;39.08;20.02;;;;;;;2.91;100.00;101610.16;5017201;28;20025;-78
2023/12/15 06:07:12;;;;;;;34.20;17.98;;;;;;;2.94;100.00;101616.97;5016158;28;20060;-74
2023/12/15 06:09:39;;;;;;;35.33;17.13;;;;;;;2.94;100.00;101614.97;5016447;28;20079;-75
2023/12/15 06:12:06;;;;;;;33.80;18.00;;;;;;;2.92;100.00;101617.41;5015827;28;20030;-76
2023/12/15 06:14:32;;;;;;;35.90;18.40;;;;;;;2.92;100.00;101616.59;5016575;28;20036;-76
2023/12/15 06:17:00;;;;;;;36.95;17.95;;;;;;;2.93;100.00;101621.03;5015932;28;20038;-75
2023/12/15 06:19:26;;;;;;;31.45;17.20;;;;;;;2.91;100.00;101621.44;5016375;28;20038;-76
2023/12/15 06:21:52;;;;;;;45.08;18.65;;;;;;;2.92;100.00;101633.53;5015901;28;20368;-74
2023/12/15 06:24:18;;;;;;;33.75;19.15;;;;;;;2.91;100.00;101635.56;4994691;28;20030;-75
2023/12/15 06:26:44;;;;;;;35.92;18.02;;;;;;;2.94;100.00;101646.03;4996123;28;20073;-75
2023/12/15 06:29:18;;;;;;;38.50;18.63;;;;;;;2.94;100.00;101648.84;4996826;28;20097;-76
2023/12/15 06:31:48;;;;;;;37.40;18.52;;;;;;;2.96;100.00;101637.97;4996559;28;20026;-75
2023/12/15 06:34:14;;;;;;;34.70;18.05;;;;;;;3.00;100.00;101646.41;5011296;28;20495;-75
2023/12/15 06:36:48;;;;;;;36.72;18.23;;;;;;;2.99;100.00;101647.63;5010973;28;20036;-76
2023/12/15 06:39:14;;;;;;;43.80;18.38;;;;;;;3.00;100.00;101655.69;4996415;28;20054;-76
2023/12/15 06:41:40;;;;;;;42.38;19.70;;;;;;;3.08;100.00;101667.78;4996191;28;20460;-76
2023/12/15 06:44:06;;;;;;;37.25;19.52;;;;;;;3.08;100.00;101665.75;4996210;28;20077;-76
2023/12/15 06:46:36;;;;;;;42.20;21.00;;;;;;;3.12;100.00;101666.56;4996345;28;20406;-76
2023/12/15 06:49:02;;;;;;;37.45;20.48;;;;;;;3.11;100.00;101664.13;4996188;28;20034;-75
2023/12/15 06:51:27;;;;;;;41.00;19.50;;;;;;;3.16;100.00;101673.00;5011284;28;20538;-76
2023/12/15 06:53:54;;;;;;;37.97;19.55;;;;;;;3.22;100.00;101685.50;4996161;28;20404;-75
2023/12/15 06:56:21;;;;;;;35.05;18.42;;;;;;;3.20;100.00;101682.25;4996235;28;20026;-76
2023/12/15 06:58:47;;;;;;;43.90;20.40;;;;;;;3.19;100.00;101691.94;4995976;28;20030;-75
2023/12/15 07:01:13;;;;;;;42.00;19.63;;;;;;;3.23;100.00;101694.75;4995876;28;20486;-83
2023/12/15 07:03:40;;;;;;;42.47;18.85;;;;;;;3.25;100.00;101700.81;4995884;28;20022;-83
2023/12/15 07:06:07;;;;;;;41.78;20.10;;;;;;;3.25;100.00;101702.81;4995806;28;20494;-82
2023/12/15 07:08:32;;;;;;;46.13;19.45;;;;;;;3.25;100.00;101697.97;4996177;28;20031;-83
2023/12/15 07:10:59;;;;;;;37.30;20.33;;;;;;;3.23;100.00;101694.75;5010887;28;20464;-82
2023/12/15 07:13:25;;;;;;;36.20;19.15;;;;;;;3.26;100.00;101698.78;4995630;28;20042;-83
2023/12/15 07:15:52;;;;;;;41.15;20.05;;;;;;;3.35;100.00;101705.59;5010500;28;20031;-83
2023/12/15 07:18:20;;;;;;;44.30;20.08;;;;;;;3.37;100.00;101705.22;5010797;28;20487;-83
2023/12/15 07:20:48;;;;;;;37.63;18.98;;;;;;;3.38;100.00;101696.31;4994589;28;20022;-83
2023/12/15 07:23:14;;;;;;;45.75;20.17;;;;;;;3.52;100.00;101706.78;4996096;28;20030;-82
2023/12/15 07:25:40;;;;;;;40.97;19.13;;;;;;;3.60;100.00;101711.16;4995557;28;20030;-84
2023/12/15 07:28:06;;;;;;;42.53;19.27;;;;;;;3.69;100.00;101719.19;5008615;28;20056;-79
2023/12/15 07:30:39;;;;;;;35.33;18.52;;;;;;;3.72;100.00;101730.50;5014635;28;20037;-78
2023/12/15 07:33:05;;;;;;;39.15;18.50;;;;;;;3.76;100.00;101724.81;5013741;28;20049;-78
2023/12/15 07:35:39;;;;;;;37.03;18.73;;;;;;;3.83;100.00;101734.06;5014887;28;20382;-79
2023/12/15 07:38:04;;;;;;;36.22;18.58;;;;;;;3.87;100.00;101729.22;5014721;28;20033;-79
2023/12/15 07:40:30;;;;;;;39.25;18.92;;;;;;;3.88;100.00;101721.53;5015014;28;20375;-77
2023/12/15 07:42:55;;;;;;;38.17;17.65;;;;;;;3.98;100.00;101734.81;5029218;28;20121;-79
2023/12/15 07:45:21;;;;;;;43.08;19.02;;;;;;;4.04;100.00;101734.00;5002785;28;20092;-78
2023/12/15 07:47:48;;;;;;;36.42;20.42;;;;;;;4.11;100.00;101747.28;4996582;28;20387;-77
2023/12/15 07:50:16;;;;;;;43.75;22.00;;;;;;;4.21;100.00;101749.25;5014618;28;20030;-78
2023/12/15 07:52:41;;;;;;;40.65;19.70;;;;;;;4.26;100.00;101748.81;5014760;28;20222;-78
2023/12/15 07:55:09;;;;;;;43.15;20.23;;;;;;;4.28;100.00;101754.03;5014634;28;20172;-78
2023/12/15 07:57:35;;;;;;;42.40;20.58;;;;;;;4.25;100.00;101758.53;4997884;28;20026;-79
2023/12/15 08:00:05;;;;;;;38.92;19.92;;;;;;;4.29;100.00;101764.16;4994584;28;20030;-79
2023/12/15 08:02:31;;;;;;;43.58;21.60;;;;;;;4.35;100.00;101765.31;4995040;28;20391;-78
2023/12/15 08:04:56;;;;;;;41.35;20.38;;;;;;;4.43;100.00;101773.34;4984871;28;20027;-79
2023/12/15 08:07:24;;;;;;;40.50;20.98;;;;;;;4.56;100.00;101778.53;4975161;28;20432;-78
2023/12/15 08:09:51;;;;;;;43.10;20.30;;;;;;;4.61;100.00;101773.22;4974208;28;20109;-77
2023/12/15 08:12:17;;;;;;;42.13;21.83;;;;;;;4.70;100.00;101778.41;4989793;28;20081;-79
2023/12/15 08:14:43;;;;;;;40.03;20.17;;;;;;;4.79;100.00;101779.56;4994757;28;20026;-78
2023/12/15 08:17:10;;;;;;;36.88;20.00;;;;;;;4.90;100.00;101782.31;4994317;28;20130;-83
2023/12/15 08:19:37;;;;;;;42.50;21.80;;;;;;;4.98;100.00;101786.66;4993380;28;20022;-79
2023/12/15 08:22:03;;;;;;;39.75;20.90;;;;;;;5.07;100.00;101797.50;4994493;28;20081;-80
2023/12/15 08:24:30;;;;;;;39.22;20.13;;;;;;;5.12;100.00;101797.88;4994674;28;20060;-79
2023/12/15 08:26:57;;;;;;;47.45;21.00;;;;;;;5.14;100.00;101801.09;4976981;28;20490;-78
2023/12/15 08:29:24;;;;;;;36.70;19.65;;;;;;;5.14;100.00;101811.63;4993937;28;20542;-79
2023/12/15 08:31:49;;;;;;;37.40;19.92;;;;;;;5.08;100.00;101807.63;4993303;28;20026;-82
2023/12/15 08:34:16;;;;;;;40.03;20.85;;;;;;;5.06;100.00;101812.91;4994670;28;20498;-79
2023/12/15 08:36:44;;;;;;;36.95;21.73;;;;;;;5.03;100.00;101819.41;4985551;28;20460;-80
2023/12/15 08:39:12;;;;;;;42.33;18.67;;;;;;;5.03;100.00;101823.06;4975104;28;20058;-79
2023/12/15 08:41:42;;;;;;;35.92;19.48;;;;;;;5.07;100.00;101823.00;4973969;28;20114;-82
2023/12/15 08:44:09;;;;;;;40.92;21.08;;;;;;;5.13;100.00;101821.34;4974748;28;20062;-79
2023/12/15 08:46:36;;;;;;;41.63;20.80;;;;;;;5.16;100.00;101823.31;4972896;28;20472;-79
2023/12/15 08:49:02;;;;;;;37.05;20.70;;;;;;;5.17;100.00;101827.78;4974962;28;20038;-78
2023/12/15 08:51:29;;;;;;;40.67;19.67;;;;;;;5.17;100.00;101833.44;5003664;28;20030;-77
2023/12/15 08:53:55;;;;;;;41.05;21.85;;;;;;;5.19;100.00;101826.16;5015534;28;20092;-80
2023/12/15 08:56:33;;;;;;;41.33;21.83;;;;;;;5.26;100.00;101831.75;5016940;28;20108;-79
2023/12/15 08:59:01;;;;;;;37.65;18.75;;;;;;;5.29;100.00;101835.78;5015661;28;20053;-82
2023/12/15 09:01:26;;;;;;;43.13;20.80;;;;;;;5.24;100.00;101834.22;4997519;28;20022;-75
2023/12/15 09:03:53;;;;;;;36.33;19.45;;;;;;;5.20;100.00;101839.06;5012380;28;20461;-75
2023/12/15 09:06:20;;;;;;;37.17;18.35;;;;;;;5.15;100.00;101835.91;4993788;28;20081;-76
2023/12/15 09:08:47;;;;;;;36.40;18.58;;;;;;;5.13;100.00;101846.84;4992646;28;20035;-78
2023/12/15 09:11:13;;;;;;;38.35;19.40;;;;;;;5.16;100.00;101848.84;4993801;28;20052;-76
2023/12/15 09:13:40;;;;;;;34.60;18.90;;;;;;;5.15;100.00;101850.88;4993557;28;20464;-76
2023/12/15 09:16:07;;;;;;;37.22;19.23;;;;;;;5.09;100.00;101846.88;5009170;28;20439;-77
2023/12/15 09:18:33;;;;;;;34.20;19.05;;;;;;;5.13;100.00;101850.47;5010795;28;20054;-77
2023/12/15 09:21:01;;;;;;;37.80;21.38;;;;;;;5.16;100.00;101857.34;5013578;28;20030;-76
2023/12/15 09:23:27;;;;;;;37.35;19.90;;;;;;;5.17;100.00;101856.13;5013643;28;20104;-82
2023/12/15 09:25:54;;;;;;;33.35;18.52;;;;;;;5.16;100.00;101848.84;5015624;28;20037;-90
2023/12/15 09:28:21;;;;;;;37.72;18.35;;;;;;;5.17;100.00;101853.28;5015334;28;20075;-90
2023/12/15 09:30:47;;;;;;;34.33;19.20;;;;;;;5.18;100.00;101852.88;4999633;28;20468;-83
2023/12/15 09:33:13;;;;;;;35.72;19.80;;;;;;;5.15;100.00;101862.22;4993976;28;20096;-86
2023/12/15 09:35:41;;;;;;;36.72;17.63;;;;;;;5.15;100.00;101856.56;4994417;28;20045;-87
2023/12/15 09:38:08;;;;;;;33.72;18.40;;;;;;;5.21;100.00;101873.88;4995254;28;20018;-81
2023/12/15 09:40:35;;;;;;;35.08;18.17;;;;;;;5.17;100.00;101873.13;4997556;28;20030;-84
2023/12/15 09:43:01;;;;;;;31.73;17.40;;;;;;;5.17;100.00;101871.09;4980123;28;20067;-82
2023/12/15 09:45:29;;;;;;;28.60;16.58;;;;;;;5.28;100.00;101873.84;4996445;28;20034;-82
2023/12/15 09:47:55;;;;;;;35.25;17.17;;;;;;;5.36;100.00;101876.19;4996347;28;20483;-88
2023/12/15 09:50:32;;;;;;;35.13;16.92;;;;;;;5.44;100.00;101876.94;4996275;28;20034;-89
2023/12/15 09:52:58;;;;;;;37.20;17.40;;;;;;;5.52;100.00;101872.81;4997511;28;20483;-89
2023/12/15 09:55:26;;;;;;;34.10;17.30;;;;;;;5.63;100.00;101869.88;4986549;28;20372;-88
2023/12/15 09:57:53;;;;;;;28.02;15.90;;;;;;;5.67;100.00;101879.94;4998136;28;20045;-89
2023/12/15 10:00:21;;;;;;;29.35;15.27;;;;;;;5.65;100.00;101887.25;4991170;28;20073;-81
2023/12/15 10:02:47;;;;;;;26.52;14.27;;;;;;;5.58;100.00;101878.84;4997562;28;20030;-83
2023/12/15 10:05:14;;;;;;;31.35;15.68;;;;;;;5.59;100.00;101880.44;5012380;28;20438;-81
2023/12/15 10:07:44;;;;;;;26.02;15.10;;;;;;;5.67;100.00;101894.13;4979588;28;20030;-81
2023/12/15 10:10:11;;;;;;;32.92;16.30;;;;;;;5.77;100.00;101907.41;4996608;28;20093;-80
2023/12/15 10:12:37;;;;;;;29.02;16.52;;;;;;;5.94;100.00;101905.63;4996026;28;20499;-83
2023/12/15 10:15:06;;;;;;;31.92;17.05;;;;;;;6.11;100.00;101913.09;4997361;28;20069;-82
2023/12/15 10:17:32;;;;;;;28.67;15.45;;;;;;;6.17;100.00;101908.59;5012362;28;20074;-84
2023/12/15 10:20:09;;;;;;;26.80;14.98;;;;;;;6.16;100.00;101911.84;4997685;28;20050;-80
2023/12/15 10:22:36;;;;;;;28.85;15.63;;;;;;;6.16;100.00;101904.13;4979403;28;20368;-80
2023/12/15 10:25:15;;;;;;;30.02;14.75;;;;;;;6.22;100.00;101896.75;4997296;28;20412;-79
2023/12/15 10:27:45;;;;;;;36.00;16.75;;;;;;;6.36;100.00;101906.34;4996972;28;20502;-88
2023/12/15 10:30:11;;;;;;;24.08;14.85;;;;;;;6.39;100.00;101903.47;4997850;28;20038;-88
2023/12/15 10:32:38;;;;;;;31.08;16.52;;;;;;;6.43;100.00;101904.25;4996707;28;20041;-82
2023/12/15 10:35:13;;;;;;;30.40;15.88;;;;;;;6.49;100.00;101916.72;4998622;28;20029;-80
2023/12/15 10:37:41;;;;;;;30.60;15.20;;;;;;;6.49;100.00;101902.53;4996506;28;20022;-80
2023/12/15 10:40:08;;;;;;;25.27;14.82;;;;;;;6.50;100.00;101900.50;4996398;28;20026;-80
2023/12/15 10:42:35;;;;;;;25.83;15.10;;;;;;;6.41;100.00;101883.19;5012719;28;20061;-80
2023/12/15 10:45:06;;;;;;;26.20;14.05;;;;;;;6.49;100.00;101891.16;5010698;28;20038;-80
2023/12/15 10:47:32;;;;;;;26.77;14.43;;;;;;;6.48;100.00;101894.44;4995513;28;20041;-79
2023/12/15 10:50:14;;;;;;;25.67;13.98;;;;;;;6.39;100.00;101911.97;5000966;28;20034;-82
2023/12/15 10:53:03;;;;;;;29.05;14.10;;;;;;;6.23;100.00;101900.41;5002938;28;20053;-80
2023/12/15 10:55:34;;;;;;;28.25;13.27;;;;;;;6.21;100.00;101900.81;5001200;28;20480;-81
2023/12/15 10:58:01;;;;;;;24.07;11.83;;;;;;;6.24;100.00;101896.31;5002124;28;20022;-80
2023/12/15 11:00:28;;;;;;;19.70;11.60;;;;;;;6.24;100.00;101894.28;5000971;28;20046;-81
2023/12/15 11:02:54;;;;;;;22.05;11.73;;;;;;;6.34;100.00;101901.09;4999786;28;20054;-80
2023/12/15 11:05:20;;;;;;;22.48;12.80;;;;;;;6.42;100.00;101887.63;4998422;28;20049;-80
2023/12/15 11:07:45;;;;;;;21.23;13.27;;;;;;;6.55;100.00;101883.78;4998765;28;20049;-81
2023/12/15 11:10:13;;;;;;;20.88;12.00;;;;;;;6.80;100.00;101888.31;5000834;28;20030;-80